createdAt,value
2022-08-24T00:01:27.793Z,101085.69
2022-08-24T00:03:57.717Z,101080.09
2022-08-24T00:06:28.542Z,101090.22
2022-08-24T00:08:57.176Z,101081.75
2022-08-24T00:11:24.976Z,101087.03
2022-08-24T00:13:52.755Z,101082.91
2022-08-24T00:16:20.634Z,101085.78
2022-08-24T00:18:48.548Z,101082.50
2022-08-24T00:21:16.405Z,101082.09
2022-08-24T00:23:43.720Z,101074.91
2022-08-24T00:26:11.322Z,101084.91
2022-08-24T00:28:38.626Z,101085.28
2022-08-24T00:31:08.304Z,101087.72
2022-08-24T00:33:36.435Z,101079.69
2022-08-24T00:36:04.973Z,101086.19
2022-08-24T00:38:33.785Z,101092.59
2022-08-24T00:41:02.021Z,101089.78
2022-08-24T00:43:29.449Z,101087.00
2022-08-24T00:46:15.832Z,101088.47
2022-08-24T00:48:46.281Z,101083.31
2022-08-24T00:51:19.119Z,101080.50
2022-08-24T00:53:50.651Z,101074.88
2022-08-24T00:56:22.021Z,101084.19
2022-08-24T00:58:56.083Z,101079.28
2022-08-24T01:01:26.003Z,101084.53
2022-08-24T01:03:56.838Z,101086.50
2022-08-24T01:06:25.020Z,101078.50
2022-08-24T01:08:56.648Z,101077.75
2022-08-24T01:11:27.497Z,101083.00
2022-08-24T01:14:00.288Z,101078.16
2022-08-24T01:16:46.091Z,101080.56
2022-08-24T01:19:37.203Z,101082.78
2022-08-24T01:22:42.909Z,101084.41
2022-08-24T01:25:10.433Z,101078.75
2022-08-24T01:27:38.151Z,101075.13
2022-08-24T01:30:09.450Z,101080.88
2022-08-24T01:32:38.893Z,101080.03
2022-08-24T01:35:06.981Z,101080.88
2022-08-24T01:37:34.877Z,101088.47
2022-08-24T01:40:06.346Z,101091.22
2022-08-24T01:42:34.934Z,101084.41
2022-08-24T01:45:04.063Z,101088.03
2022-08-24T01:47:31.427Z,101084.38
2022-08-24T01:49:58.719Z,101078.34
2022-08-24T01:52:29.735Z,101084.03
2022-08-24T01:55:06.660Z,101085.25
2022-08-24T01:57:33.882Z,101090.41
2022-08-24T02:00:04.317Z,101094.47
2022-08-24T02:02:41.478Z,101088.38
2022-08-24T02:05:10.982Z,101081.97
2022-08-24T02:07:39.133Z,101082.53
2022-08-24T02:10:08.698Z,101086.53
2022-08-24T02:12:36.778Z,101081.66
2022-08-24T02:15:07.826Z,101080.09
2022-08-24T02:17:36.253Z,101080.72
2022-08-24T02:20:05.376Z,101078.00
2022-08-24T02:22:32.927Z,101078.44
2022-08-24T02:25:00.198Z,101093.66
2022-08-24T02:27:27.505Z,101081.84
2022-08-24T02:29:54.799Z,101087.94
2022-08-24T02:32:22.068Z,101083.47
2022-08-24T02:34:49.837Z,101087.47
2022-08-24T02:37:21.884Z,101089.50
2022-08-24T02:39:49.516Z,101091.59
2022-08-24T02:42:19.007Z,101092.38
2022-08-24T02:44:46.392Z,101092.06
2022-08-24T02:47:17.949Z,101082.41
2022-08-24T02:49:45.569Z,101085.03
2022-08-24T02:52:13.109Z,101082.56
2022-08-24T02:54:40.449Z,101081.69
2022-08-24T02:57:08.087Z,101080.06
2022-08-24T02:59:35.469Z,101084.66
2022-08-24T03:02:04.175Z,101077.91
2022-08-24T03:04:31.662Z,101087.47
2022-08-24T03:06:59.628Z,101084.56
2022-08-24T03:09:28.844Z,101087.97
2022-08-24T03:11:58.256Z,101080.13
2022-08-24T03:14:25.944Z,101081.34
2022-08-24T03:16:53.835Z,101080.75
2022-08-24T03:19:22.237Z,101085.72
2022-08-24T03:21:49.503Z,101080.03
2022-08-24T03:24:17.253Z,101083.84
2022-08-24T03:26:45.328Z,101073.50
2022-08-24T03:29:15.822Z,101075.91
2022-08-24T03:31:44.197Z,101075.66
2022-08-24T03:34:19.824Z,101073.72
2022-08-24T03:36:48.747Z,101071.94
2022-08-24T03:39:17.239Z,101072.56
2022-08-24T03:41:45.271Z,101076.09
2022-08-24T03:44:12.737Z,101071.22
2022-08-24T03:46:40.142Z,101080.25
2022-08-24T03:49:09.942Z,101071.59
2022-08-24T03:51:38.371Z,101078.03
2022-08-24T03:54:09.350Z,101070.53
2022-08-24T03:56:37.017Z,101074.44
2022-08-24T03:59:05.223Z,101064.78
2022-08-24T04:01:38.864Z,101071.22
2022-08-24T04:04:06.387Z,101068.03
2022-08-24T04:06:36.141Z,101068.41
2022-08-24T04:09:04.716Z,101069.22
2022-08-24T04:11:39.410Z,101061.00
2022-08-24T04:14:08.831Z,101068.28
2022-08-24T04:16:58.616Z,101067.16
2022-08-24T04:19:32.201Z,101064.03
2022-08-24T04:21:59.580Z,101061.56
2022-08-24T04:24:27.080Z,101071.56
2022-08-24T04:26:54.563Z,101071.59
2022-08-24T04:29:21.847Z,101066.31
2022-08-24T04:31:52.488Z,101064.78
2022-08-24T04:34:20.830Z,101059.53
2022-08-24T04:36:49.191Z,101065.16
2022-08-24T04:39:16.620Z,101066.63
2022-08-24T04:41:50.604Z,101068.69
2022-08-24T04:44:19.724Z,101053.91
2022-08-24T04:46:47.490Z,101061.56
2022-08-24T04:49:14.735Z,101062.19
2022-08-24T04:51:42.026Z,101067.88
2022-08-24T04:54:09.507Z,101060.28
2022-08-24T04:56:38.061Z,101064.25
2022-08-24T04:59:05.977Z,101059.75
2022-08-24T05:01:34.648Z,101063.38
2022-08-24T05:04:04.913Z,101067.94
2022-08-24T05:06:32.870Z,101070.63
2022-08-24T05:09:02.124Z,101069.06
2022-08-24T05:11:31.140Z,101072.47
2022-08-24T05:13:59.339Z,101071.84
2022-08-24T05:16:27.993Z,101071.03
2022-08-24T05:18:56.585Z,101070.25
2022-08-24T05:21:26.386Z,101074.31
2022-08-24T05:23:56.148Z,101075.97
2022-08-24T05:26:28.102Z,101078.84
2022-08-24T05:28:57.904Z,101082.53
2022-08-24T05:31:29.732Z,101076.03
2022-08-24T05:34:00.485Z,101077.94
2022-08-24T05:36:30.265Z,101080.03
2022-08-24T05:39:00.877Z,101079.25
2022-08-24T05:41:28.831Z,101072.91
2022-08-24T05:44:06.727Z,101081.56
2022-08-24T05:46:35.333Z,101078.75
2022-08-24T05:49:02.779Z,101080.88
2022-08-24T05:51:32.148Z,101087.34
2022-08-24T05:54:09.579Z,101086.53
2022-08-24T05:56:48.535Z,101083.66
2022-08-24T05:59:18.031Z,101079.13
2022-08-24T06:01:46.557Z,101079.75
2022-08-24T06:04:14.436Z,101078.06
2022-08-24T06:06:42.776Z,101082.59
2022-08-24T06:09:11.613Z,101085.13
2022-08-24T06:11:40.345Z,101084.00
2022-08-24T06:14:14.224Z,101092.09
2022-08-24T06:16:52.831Z,101091.72
2022-08-24T06:19:21.384Z,101091.41
2022-08-24T06:21:51.253Z,101089.03
2022-08-24T06:24:19.139Z,101085.84
2022-08-24T06:27:06.100Z,101092.16
2022-08-24T06:29:34.078Z,101091.09
2022-08-24T06:32:17.984Z,101094.38
2022-08-24T06:34:45.341Z,101095.56
2022-08-24T06:37:13.684Z,101095.63
2022-08-24T06:39:42.034Z,101095.69
2022-08-24T06:42:11.039Z,101094.53
2022-08-24T06:44:44.180Z,101094.56
2022-08-24T06:47:19.896Z,101085.69
2022-08-24T06:49:49.381Z,101087.28
2022-08-24T06:52:16.674Z,101091.31
2022-08-24T06:54:44.127Z,101093.19
2022-08-24T06:57:11.499Z,101081.78
2022-08-24T06:59:40.308Z,101091.66
2022-08-24T07:02:09.302Z,101091.31
2022-08-24T07:04:38.560Z,101092.47
2022-08-24T07:07:24.580Z,101087.72
2022-08-24T07:09:51.897Z,101082.09
2022-08-24T07:12:19.480Z,101079.69
2022-08-24T07:14:47.046Z,101084.59
2022-08-24T07:17:14.334Z,101090.22
2022-08-24T07:19:42.822Z,101087.03
2022-08-24T07:22:10.401Z,101086.56
2022-08-24T07:24:37.942Z,101083.69
2022-08-24T07:27:06.684Z,101090.22
2022-08-24T07:29:50.468Z,101086.63
2022-08-24T07:32:20.733Z,101090.22
2022-08-24T07:34:50.215Z,101093.06
2022-08-24T07:37:17.813Z,101094.28
2022-08-24T07:39:48.545Z,101096.28
2022-08-24T07:42:26.522Z,101104.75
2022-08-24T07:44:59.565Z,101099.13
2022-08-24T07:47:38.132Z,101107.56
2022-08-24T07:50:17.323Z,101103.50
2022-08-24T07:52:45.541Z,101099.91
2022-08-24T07:55:14.116Z,101105.53
2022-08-24T07:57:42.228Z,101100.63
2022-08-24T08:00:12.670Z,101105.06
2022-08-24T08:02:47.348Z,101108.28
2022-08-24T08:05:19.294Z,101107.41
2022-08-24T08:07:52.118Z,101111.44
2022-08-24T08:10:20.348Z,101119.50
2022-08-24T08:12:47.776Z,101125.09
2022-08-24T08:15:15.299Z,101119.81
2022-08-24T08:18:03.011Z,101122.19
2022-08-24T08:20:31.438Z,101124.56
2022-08-24T08:23:17.688Z,101127.03
2022-08-24T08:26:01.910Z,101124.09
2022-08-24T08:28:43.494Z,101126.88
2022-08-24T08:31:10.932Z,101123.81
2022-08-24T08:33:40.240Z,101120.09
2022-08-24T08:36:15.031Z,101122.88
2022-08-24T08:38:50.418Z,101118.72
2022-08-24T08:41:42.275Z,101121.38
2022-08-24T08:44:35.708Z,101114.00
2022-08-24T08:47:21.905Z,101106.28
2022-08-24T08:50:39.915Z,101111.19
2022-08-24T08:53:50.457Z,101109.03
2022-08-24T08:56:28.936Z,101117.16
2022-08-24T08:59:21.992Z,101109.53
2022-08-24T09:02:25.148Z,101110.56
2022-08-24T09:05:23.158Z,101111.22
2022-08-24T09:07:56.761Z,101114.19
2022-08-24T09:11:01.937Z,101106.69
2022-08-24T09:14:09.903Z,101107.25
2022-08-24T09:16:49.195Z,101105.97
2022-08-24T09:19:31.871Z,101105.16
2022-08-24T09:22:07.126Z,101108.56
2022-08-24T09:24:52.730Z,101107.88
2022-08-24T09:28:01.561Z,101113.66
2022-08-24T09:30:44.803Z,101109.97
2022-08-24T09:33:20.780Z,101116.13
2022-08-24T09:36:08.222Z,101116.31
2022-08-24T09:38:58.968Z,101110.78
2022-08-24T09:41:43.802Z,101114.00
2022-08-24T09:44:22.051Z,101117.03
2022-08-24T09:46:59.069Z,101118.16
2022-08-24T09:49:48.530Z,101116.22
2022-08-24T09:52:34.672Z,101114.22
2022-08-24T09:55:30.167Z,101112.81
2022-08-24T09:58:01.608Z,101114.97
2022-08-24T10:01:08.899Z,101106.81
2022-08-24T10:04:00.514Z,101105.31
2022-08-24T10:06:58.010Z,101106.25
2022-08-24T10:09:41.079Z,101109.06
2022-08-24T10:12:17.273Z,101108.06
2022-08-24T10:14:53.651Z,101098.47
2022-08-24T10:17:49.892Z,101087.97
2022-08-24T10:20:23.929Z,101087.09
2022-08-24T10:23:28.121Z,101082.81
2022-08-24T10:26:54.610Z,101073.19
2022-08-24T10:29:24.836Z,101082.69
2022-08-24T10:32:25.745Z,101075.66
2022-08-24T10:35:06.658Z,101074.56
2022-08-24T10:38:17.481Z,101074.59
2022-08-24T10:41:13.565Z,101070.81
2022-08-24T10:44:00.528Z,101073.84
2022-08-24T10:46:49.745Z,101071.19
2022-08-24T10:49:32.243Z,101077.50
2022-08-24T10:52:38.078Z,101070.25
2022-08-24T10:55:19.624Z,101069.25
2022-08-24T10:58:14.776Z,101068.81
2022-08-24T11:00:43.068Z,101072.00
2022-08-24T11:03:18.522Z,101060.69
2022-08-24T11:05:49.568Z,101057.22
2022-08-24T11:08:28.351Z,101056.75
2022-08-24T11:11:10.704Z,101058.78
2022-08-24T11:14:03.848Z,101050.88
2022-08-24T11:16:40.931Z,101048.25
2022-08-24T11:19:11.223Z,101042.16
2022-08-24T11:21:49.799Z,101032.34
2022-08-24T11:24:23.942Z,101039.41
2022-08-24T11:26:56.044Z,101033.47
2022-08-24T11:29:31.617Z,101027.41
2022-08-24T11:31:59.537Z,101029.66
2022-08-24T11:34:34.694Z,101019.88
2022-08-24T11:37:05.762Z,101017.75
2022-08-24T11:39:38.684Z,101025.19
2022-08-24T11:42:33.521Z,101017.66
2022-08-24T11:45:10.603Z,101022.16
2022-08-24T11:47:56.328Z,101016.34
2022-08-24T11:50:33.760Z,101009.72
2022-08-24T11:53:12.041Z,101008.72
2022-08-24T11:55:51.971Z,101004.31
2022-08-24T11:58:34.801Z,101009.44
2022-08-24T12:01:07.497Z,100995.47
2022-08-24T12:03:53.470Z,100997.22
2022-08-24T12:06:31.455Z,100998.31
2022-08-24T12:09:36.993Z,100994.63
2022-08-24T12:12:19.718Z,100985.09
2022-08-24T12:15:12.235Z,100986.97
2022-08-24T12:17:54.469Z,100991.56
2022-08-24T12:20:36.466Z,100986.69
2022-08-24T12:23:11.564Z,100993.22
2022-08-24T12:25:57.395Z,100992.78
2022-08-24T12:28:29.870Z,100993.63
2022-08-24T12:30:59.968Z,100989.31
2022-08-24T12:33:33.172Z,100982.38
2022-08-24T12:36:14.552Z,100981.16
2022-08-24T12:38:49.635Z,100988.09
2022-08-24T12:41:19.856Z,100979.72
2022-08-24T12:43:50.076Z,100978.75
2022-08-24T12:46:21.784Z,100980.22
2022-08-24T12:48:56.185Z,100971.50
2022-08-24T12:51:38.830Z,100977.28
2022-08-24T12:54:16.645Z,100971.66
2022-08-24T12:57:13.190Z,100968.44
2022-08-24T12:59:49.007Z,100970.31
2022-08-24T13:02:19.289Z,100967.09
2022-08-24T13:04:49.361Z,100963.91
2022-08-24T13:07:19.268Z,100950.53
2022-08-24T13:10:02.306Z,100962.25
2022-08-24T13:12:38.959Z,100958.16
2022-08-24T13:15:30.679Z,100948.66
2022-08-24T13:18:20.919Z,100948.19
2022-08-24T13:20:48.118Z,100950.97
2022-08-24T13:23:19.001Z,100947.22
2022-08-24T13:26:14.347Z,100954.22
2022-08-24T13:28:48.078Z,100949.28
2022-08-24T13:31:28.207Z,100936.84
2022-08-24T13:34:09.434Z,100930.34
2022-08-24T13:36:49.998Z,100931.06
2022-08-24T13:39:26.441Z,100934.03
2022-08-24T13:42:03.747Z,100927.97
2022-08-24T13:44:34.507Z,100925.44
2022-08-24T13:47:09.608Z,100917.50
2022-08-24T13:49:53.247Z,100920.63
2022-08-24T13:52:48.656Z,100910.06
2022-08-24T13:55:29.691Z,100907.03
2022-08-24T13:58:31.036Z,100916.09
2022-08-24T14:01:35.944Z,100910.84
2022-08-24T14:04:24.973Z,100902.88
2022-08-24T14:07:00.992Z,100905.28
2022-08-24T14:09:38.231Z,100901.25
2022-08-24T14:12:43.936Z,100889.53
2022-08-24T14:15:25.927Z,100898.56
2022-08-24T14:18:09.600Z,100890.53
2022-08-24T14:21:12.845Z,100883.81
2022-08-24T14:24:02.956Z,100890.22
2022-08-24T14:26:42.111Z,100893.25
2022-08-24T14:29:15.265Z,100884.75
2022-08-24T14:32:12.454Z,100886.69
2022-08-24T14:34:41.070Z,100883.44
2022-08-24T14:37:32.907Z,100875.50
2022-08-24T14:40:03.316Z,100872.78
2022-08-24T14:42:45.935Z,100873.81
2022-08-24T14:45:34.595Z,100872.00
2022-08-24T14:48:13.510Z,100876.81
2022-08-24T14:50:48.811Z,100878.44
2022-08-24T14:53:31.213Z,100871.16
2022-08-24T14:56:25.034Z,100870.88
2022-08-24T14:59:28.129Z,100875.13
2022-08-24T15:02:29.570Z,100857.56
2022-08-24T15:05:22.301Z,100867.91
2022-08-24T15:08:11.770Z,100863.69
2022-08-24T15:10:54.707Z,100867.63
2022-08-24T15:13:28.277Z,100861.47
2022-08-24T15:16:01.945Z,100864.59
2022-08-24T15:18:37.256Z,100863.72
2022-08-24T15:21:32.518Z,100868.53
2022-08-24T15:24:10.153Z,100864.19
2022-08-24T15:26:52.870Z,100863.84
2022-08-24T15:29:25.962Z,100863.97
2022-08-24T15:32:01.997Z,100866.78
2022-08-24T15:34:48.729Z,100857.97
2022-08-24T15:37:30.770Z,100861.88
2022-08-24T15:39:59.121Z,100855.09
2022-08-24T15:42:29.550Z,100851.84
2022-08-24T15:45:00.510Z,100844.81
2022-08-24T15:47:32.262Z,100851.84
2022-08-24T15:50:24.047Z,100842.22
2022-08-24T15:53:08.331Z,100847.38
2022-08-24T15:55:38.706Z,100842.59
2022-08-24T15:58:26.673Z,100833.69
2022-08-24T16:01:37.971Z,100836.06
2022-08-24T16:04:40.391Z,100836.81
2022-08-24T16:07:07.805Z,100840.25
2022-08-24T16:09:37.550Z,100833.53
2022-08-24T16:12:16.569Z,100835.97
2022-08-24T16:14:46.933Z,100826.22
2022-08-24T16:17:34.105Z,100835.34
2022-08-24T16:20:06.485Z,100838.31
2022-08-24T16:22:39.531Z,100829.88
2022-08-24T16:25:09.547Z,100831.44
2022-08-24T16:28:02.330Z,100832.03
2022-08-24T16:30:49.865Z,100820.28
2022-08-24T16:33:33.191Z,100826.19
2022-08-24T16:36:06.725Z,100827.13
2022-08-24T16:38:35.591Z,100823.38
2022-08-24T16:41:06.504Z,100816.97
2022-08-24T16:43:39.498Z,100821.06
2022-08-24T16:46:08.491Z,100814.78
2022-08-24T16:48:36.052Z,100818.44
2022-08-24T16:51:04.538Z,100811.81
2022-08-24T16:53:31.796Z,100814.19
2022-08-24T16:55:59.462Z,100819.06
2022-08-24T16:58:31.345Z,100811.38
2022-08-24T17:00:59.147Z,100803.94
2022-08-24T17:03:26.602Z,100802.75
2022-08-24T17:05:55.478Z,100812.19
2022-08-24T17:08:22.798Z,100804.75
2022-08-24T17:10:50.291Z,100801.09
2022-08-24T17:13:45.839Z,100801.91
2022-08-24T17:16:04.953Z,100809.09
2022-08-24T17:18:34.459Z,100813.00
2022-08-24T17:21:01.745Z,100811.50
2022-08-24T17:23:29.435Z,100810.03
2022-08-24T17:25:56.715Z,100805.31
2022-08-24T17:28:24.095Z,100806.50
2022-08-24T17:30:51.738Z,100815.06
2022-08-24T17:33:19.693Z,100811.88
2022-08-24T17:35:47.034Z,100811.09
2022-08-24T17:38:14.486Z,100822.91
2022-08-24T17:40:41.731Z,100821.22
2022-08-24T17:43:09.168Z,100813.69
2022-08-24T17:45:36.461Z,100813.22
2022-08-24T17:48:04.114Z,100812.31
2022-08-24T17:50:32.083Z,100813.44
2022-08-24T17:53:00.466Z,100817.25
2022-08-24T17:55:28.307Z,100814.53
2022-08-24T17:57:55.874Z,100824.47
2022-08-24T18:00:23.254Z,100822.19
2022-08-24T18:02:50.573Z,100823.69
2022-08-24T18:05:18.467Z,100826.75
2022-08-24T18:07:53.926Z,100822.91
2022-08-24T18:10:25.901Z,100825.63
2022-08-24T18:12:53.565Z,100826.75
2022-08-24T18:15:21.145Z,100827.22
2022-08-24T18:17:51.520Z,100824.59
2022-08-24T18:20:25.878Z,100819.16
2022-08-24T18:22:53.863Z,100821.19
2022-08-24T18:25:23.227Z,100821.31
2022-08-24T18:27:52.381Z,100827.34
2022-08-24T18:30:23.212Z,100824.66
2022-08-24T18:32:56.486Z,100823.66
2022-08-24T18:35:23.844Z,100827.94
2022-08-24T18:37:51.110Z,100829.19
2022-08-24T18:40:21.069Z,100826.22
2022-08-24T18:42:50.669Z,100826.88
2022-08-24T18:45:18.507Z,100829.72
2022-08-24T18:47:52.985Z,100835.72
2022-08-24T18:50:21.373Z,100838.38
2022-08-24T18:52:48.781Z,100835.34
2022-08-24T18:55:16.868Z,100832.69
2022-08-24T18:57:44.661Z,100837.63
2022-08-24T19:00:12.896Z,100837.00
2022-08-24T19:02:40.716Z,100845.28
2022-08-24T19:05:14.738Z,100842.59
2022-08-24T19:07:45.182Z,100851.84
2022-08-24T19:10:15.074Z,100854.88
2022-08-24T19:12:46.939Z,100844.38
2022-08-24T19:15:30.894Z,100854.69
2022-08-24T19:18:05.429Z,100851.13
2022-08-24T19:20:35.167Z,100852.84
2022-08-24T19:23:08.863Z,100863.38
2022-08-24T19:25:37.311Z,100867.44
2022-08-24T19:28:05.218Z,100863.72
2022-08-24T19:30:32.651Z,100862.00
2022-08-24T19:33:00.821Z,100861.25
2022-08-24T19:35:29.912Z,100862.88
2022-08-24T19:37:57.198Z,100863.13
2022-08-24T19:40:24.582Z,100864.28
2022-08-24T19:42:53.708Z,100869.81
2022-08-24T19:45:43.629Z,100873.66
2022-08-24T19:48:12.418Z,100866.50
2022-08-24T19:50:40.089Z,100859.69
2022-08-24T19:53:07.732Z,100868.56
2022-08-24T19:55:34.899Z,100872.13
2022-08-24T19:58:20.001Z,100870.00
2022-08-24T20:01:02.285Z,100866.13
2022-08-24T20:03:29.554Z,100867.25
2022-08-24T20:05:57.211Z,100862.66
2022-08-24T20:08:24.666Z,100871.97
2022-08-24T20:10:55.966Z,100867.72
2022-08-24T20:13:23.219Z,100863.72
2022-08-24T20:15:50.622Z,100860.63
2022-08-24T20:18:18.125Z,100864.00
2022-08-24T20:20:46.444Z,100865.13
2022-08-24T20:23:16.656Z,100866.53
2022-08-24T20:25:44.025Z,100867.16
2022-08-24T20:28:32.642Z,100861.25
2022-08-24T20:31:02.099Z,100861.75
2022-08-24T20:33:29.406Z,100863.22
2022-08-24T20:35:56.802Z,100854.72
2022-08-24T20:38:24.606Z,100871.66
2022-08-24T20:40:52.526Z,100866.97
2022-08-24T20:43:20.291Z,100874.31
2022-08-24T20:45:50.674Z,100871.81
2022-08-24T20:48:26.143Z,100876.38
2022-08-24T20:50:53.643Z,100880.00
2022-08-24T20:53:20.866Z,100876.19
2022-08-24T20:55:48.534Z,100881.97
2022-08-24T20:58:17.896Z,100886.19
2022-08-24T21:00:46.026Z,100872.22
2022-08-24T21:03:18.833Z,100878.84
2022-08-24T21:05:47.547Z,100878.78
2022-08-24T21:08:14.853Z,100881.63
2022-08-24T21:10:42.492Z,100883.69
2022-08-24T21:13:10.281Z,100881.91
2022-08-24T21:15:39.470Z,100884.53
2022-08-24T21:18:06.857Z,100880.41
2022-08-24T21:20:34.619Z,100881.50
2022-08-24T21:23:01.943Z,100878.16
2022-08-24T21:25:29.758Z,100878.84
2022-08-24T21:27:59.608Z,100881.81
2022-08-24T21:30:27.123Z,100884.22
2022-08-24T21:33:12.980Z,100886.16
2022-08-24T21:35:42.695Z,100875.16
2022-08-24T21:38:11.366Z,100877.94
2022-08-24T21:40:38.604Z,100886.56
2022-08-24T21:43:09.303Z,100888.31
2022-08-24T21:45:42.566Z,100876.03
2022-08-24T21:48:12.979Z,100875.16
2022-08-24T21:50:40.274Z,100874.38
2022-08-24T21:53:08.081Z,100868.91
2022-08-24T21:55:35.783Z,100864.31
2022-08-24T21:58:03.136Z,100864.31
2022-08-24T22:00:30.661Z,100869.03
2022-08-24T22:02:57.972Z,100862.56
2022-08-24T22:05:25.298Z,100867.81
2022-08-24T22:07:52.501Z,100865.09
2022-08-24T22:10:19.984Z,100860.41
2022-08-24T22:12:47.201Z,100869.06
2022-08-24T22:15:18.615Z,100863.53
2022-08-24T22:17:52.875Z,100869.44
2022-08-24T22:20:23.368Z,100869.88
2022-08-24T22:22:51.198Z,100875.31
2022-08-24T22:25:18.617Z,100876.03
2022-08-24T22:27:46.741Z,100877.88
2022-08-24T22:30:16.986Z,100873.69
2022-08-24T22:32:45.574Z,100872.69
2022-08-24T22:35:13.190Z,100873.25
2022-08-24T22:37:42.936Z,100871.75
2022-08-24T22:40:12.654Z,100872.94
2022-08-24T22:42:40.571Z,100871.06
2022-08-24T22:45:09.309Z,100870.63
2022-08-24T22:47:37.321Z,100871.94
2022-08-24T22:50:06.505Z,100864.66
2022-08-24T22:52:34.216Z,100867.75
2022-08-24T22:55:01.759Z,100856.91
2022-08-24T22:57:30.250Z,100859.44
2022-08-24T22:59:57.967Z,100867.81
2022-08-24T23:02:25.314Z,100870.00
2022-08-24T23:04:53.112Z,100863.53
2022-08-24T23:07:21.056Z,100868.44
2022-08-24T23:09:48.799Z,100865.25
2022-08-24T23:12:22.392Z,100874.22
2022-08-24T23:14:51.187Z,100866.69
2022-08-24T23:17:19.705Z,100871.31
2022-08-24T23:20:05.394Z,100871.63
2022-08-24T23:22:36.316Z,100861.22
2022-08-24T23:25:05.059Z,100864.84
2022-08-24T23:27:37.925Z,100872.47
2022-08-24T23:30:09.884Z,100864.41
2022-08-24T23:32:37.693Z,100868.09
2022-08-24T23:35:06.002Z,100873.03
2022-08-24T23:37:33.430Z,100874.97
2022-08-24T23:40:00.893Z,100875.16
2022-08-24T23:42:28.176Z,100881.75
2022-08-24T23:44:55.468Z,100878.09
2022-08-24T23:47:22.815Z,100885.22
2022-08-24T23:49:50.994Z,100879.63
2022-08-24T23:52:27.207Z,100881.25
2022-08-24T23:55:18.233Z,100888.88
2022-08-24T23:57:44.652Z,100884.50
